バンダルスリブガワン の空港の天気 - METARとTAF

ブルネイ国際空港 ( WBSB / BWN ) - ブルネイ バンダルスリブガワン
飛行場実況気象(Metar)
観測時間12/14 14:00 BNT (12/14 06:00 UTC)
風向・風速北西 4m/s
視程10km以上
天気現象
少しの雲 雲底高度 490m
少しの雲 雲底高度 520m
全天の8割程度の雲 雲底高度 9140m
気温32℃
湿度59%
気圧1008hPa
METARWBSB 140600Z 31007KT 9999 FEW016 FEW017CB BKN300 32/23 Q1008 NOSIG
過去の天気等 Google飛行場航空写真 Wunderground天気予報

過去48時間のMETAR

飛行場予報(TAF)
発表時間: 12/14 12:50 BNT (12/14 04:50 UTC)
予報対象時間: 14日14時 BNT ~ 15日20時 BNT
風向・風速北東 5m/s
視程10km以上
少しの雲 雲底高度 490m
少しの積乱雲 雲底高度 520m
14日19時 BNT ~ 14日21時 BNT に徐々に
風向・風速東 1m/s
全天の4割程度の雲 雲底高度 460m
少しの積乱雲 雲底高度 490m
14日20時 BNT ~ 14日24時 BNT に一時的に
視程4000m
天気現象雷雨
TAF WBSB 140450Z 1406/1512 04010KT 9999 FEW016 FEW017CB
BECMG 1411/1413 10002KT SCT015 FEW016CB
TEMPO 1412/1416 4000 TSRA